createdAt,value
2019-02-24T00:02:02.082Z,11.73
2019-02-24T00:04:51.869Z,12.90
2019-02-24T00:07:41.701Z,16.67
2019-02-24T00:10:31.504Z,11.25
2019-02-24T00:13:21.326Z,14.30
2019-02-24T00:16:11.144Z,15.05
2019-02-24T00:19:00.964Z,15.23
2019-02-24T00:21:50.734Z,18.00
2019-02-24T00:24:21.691Z,16.50
2019-02-24T00:27:11.492Z,16.60
2019-02-24T00:30:01.303Z,25.15
2019-02-24T00:32:51.058Z,16.40
2019-02-24T00:35:40.864Z,15.75
2019-02-24T00:38:30.649Z,18.27
2019-02-24T00:41:20.487Z,18.05
2019-02-24T00:44:10.259Z,22.35
2019-02-24T00:47:00.084Z,18.00
2019-02-24T00:49:49.873Z,28.20
2019-02-24T00:52:39.665Z,17.75
2019-02-24T00:55:30.710Z,19.90
2019-02-24T00:58:16.121Z,23.45
2019-02-24T01:00:56.842Z,21.05
2019-02-24T01:06:42.130Z,21.48
2019-02-24T01:09:31.955Z,23.27
2019-02-24T01:12:21.794Z,23.70
2019-02-24T01:15:11.618Z,21.87
2019-02-24T01:18:01.443Z,19.40
2019-02-24T01:20:51.273Z,25.90
2019-02-24T01:23:21.675Z,20.85
2019-02-24T01:26:11.481Z,19.40
2019-02-24T01:29:01.291Z,18.32
2019-02-24T01:31:51.173Z,22.50
2019-02-24T01:34:41.002Z,23.57
2019-02-24T01:37:30.859Z,23.83
2019-02-24T01:40:20.695Z,19.57
2019-02-24T01:43:10.470Z,25.80
2019-02-24T01:45:40.899Z,22.05
2019-02-24T01:48:30.684Z,27.20
2019-02-24T01:51:20.519Z,18.82
2019-02-24T01:54:10.381Z,25.55
2019-02-24T01:57:00.260Z,23.73
2019-02-24T01:59:50.104Z,19.70
2019-02-24T02:02:40.000Z,19.42
2019-02-24T02:05:29.815Z,23.47
2019-02-24T02:08:19.619Z,23.62
2019-02-24T02:11:09.614Z,28.32
2019-02-24T02:13:59.422Z,25.15
2019-02-24T02:16:49.270Z,24.37
2019-02-24T02:19:39.079Z,28.47
2019-02-24T02:22:28.883Z,27.70
2019-02-24T02:25:18.680Z,23.70
2019-02-24T02:28:08.510Z,23.95
2019-02-24T02:30:58.351Z,19.15
2019-02-24T02:33:48.140Z,23.20
2019-02-24T02:36:37.963Z,26.33
2019-02-24T02:39:27.778Z,25.12
2019-02-24T02:42:17.570Z,25.50
2019-02-24T02:44:47.978Z,26.40
2019-02-24T02:47:37.771Z,22.55
2019-02-24T02:50:27.598Z,25.97
2019-02-24T02:53:17.397Z,26.60
2019-02-24T02:55:47.888Z,17.95
2019-02-24T02:58:37.660Z,23.55
2019-02-24T03:01:08.083Z,22.02
2019-02-24T03:03:57.873Z,22.98
2019-02-24T03:09:40.111Z,24.35
2019-02-24T03:12:29.921Z,21.95
2019-02-24T03:15:19.725Z,22.77
2019-02-24T03:18:09.562Z,22.35
2019-02-24T03:20:59.366Z,26.75
2019-02-24T03:23:49.213Z,20.97
2019-02-24T03:26:39.003Z,30.20
2019-02-24T03:29:28.782Z,24.20
2019-02-24T03:32:18.595Z,24.75
2019-02-24T03:35:08.434Z,19.77
2019-02-24T03:37:58.246Z,26.07
2019-02-24T03:40:28.640Z,24.23
2019-02-24T03:43:18.459Z,26.55
2019-02-24T03:46:08.262Z,22.90
2019-02-24T03:48:58.069Z,24.85
2019-02-24T03:51:47.859Z,20.85
2019-02-24T03:54:37.679Z,18.85
2019-02-24T03:57:27.553Z,25.50
2019-02-24T04:00:17.433Z,21.45
2019-02-24T04:02:47.865Z,24.52
2019-02-24T04:05:37.685Z,27.58
2019-02-24T04:08:27.488Z,21.85
2019-02-24T04:10:57.883Z,22.25
2019-02-24T04:13:47.694Z,26.23
2019-02-24T04:16:37.499Z,23.07
2019-02-24T04:19:27.332Z,20.62
2019-02-24T04:22:17.209Z,20.95
2019-02-24T04:25:09.494Z,24.15
2019-02-24T04:27:59.262Z,19.50
2019-02-24T04:30:49.150Z,26.62
2019-02-24T04:33:19.649Z,21.73
2019-02-24T04:36:09.453Z,23.67
2019-02-24T04:38:39.982Z,22.27
2019-02-24T04:41:29.792Z,20.68
2019-02-24T04:44:20.545Z,18.73
2019-02-24T04:47:10.350Z,22.17
2019-02-24T04:50:00.263Z,21.20
2019-02-24T04:52:50.044Z,21.37
2019-02-24T04:55:39.876Z,25.92
2019-02-24T04:58:10.303Z,20.05
2019-02-24T05:01:00.160Z,19.42
2019-02-24T05:03:50.041Z,18.52
2019-02-24T05:09:29.182Z,21.25
2019-02-24T05:12:18.958Z,20.95
2019-02-24T05:14:49.371Z,23.62
2019-02-24T05:17:38.984Z,20.62
2019-02-24T05:20:28.790Z,19.37
2019-02-24T05:23:18.587Z,19.50
2019-02-24T05:26:08.582Z,23.22
2019-02-24T05:28:58.765Z,23.87
2019-02-24T05:31:48.566Z,20.75
2019-02-24T05:34:38.421Z,19.45
2019-02-24T05:37:08.849Z,24.02
2019-02-24T05:39:39.278Z,21.42
2019-02-24T05:42:29.476Z,24.70
2019-02-24T05:45:19.269Z,23.00
2019-02-24T05:48:09.094Z,20.15
2019-02-24T05:51:17.912Z,18.80
2019-02-24T05:53:48.504Z,20.92
2019-02-24T05:56:38.275Z,24.10
2019-02-24T05:59:28.440Z,22.52
2019-02-24T06:02:18.197Z,23.00
2019-02-24T06:04:48.629Z,22.02
2019-02-24T06:07:19.038Z,19.37
2019-02-24T06:10:09.335Z,22.58
2019-02-24T06:12:40.082Z,29.00
2019-02-24T06:15:29.936Z,23.20
2019-02-24T06:18:19.747Z,24.35
2019-02-24T06:21:09.590Z,20.13
2019-02-24T06:23:40.031Z,19.35
2019-02-24T06:26:30.279Z,23.77
2019-02-24T06:29:12.738Z,24.07
2019-02-24T06:32:02.566Z,21.07
2019-02-24T06:34:52.354Z,24.82
2019-02-24T06:37:42.154Z,25.85
2019-02-24T06:40:31.969Z,20.57
2019-02-24T06:43:22.278Z,22.35
2019-02-24T06:46:12.094Z,26.82
2019-02-24T06:49:01.914Z,23.17
2019-02-24T06:51:51.697Z,22.93
2019-02-24T06:54:41.503Z,37.83
2019-02-24T06:57:31.382Z,20.63
2019-02-24T07:00:21.210Z,27.77
2019-02-24T07:03:11.526Z,27.50
2019-02-24T07:05:42.171Z,19.97
2019-02-24T07:08:31.962Z,20.83
2019-02-24T07:11:21.775Z,20.13
2019-02-24T07:14:11.536Z,23.20
2019-02-24T07:17:01.361Z,17.77
2019-02-24T07:19:51.155Z,16.47
2019-02-24T07:22:40.950Z,20.73
2019-02-24T07:25:30.732Z,20.83
2019-02-24T07:28:01.212Z,19.90
2019-02-24T07:30:50.969Z,19.80
2019-02-24T07:33:40.789Z,24.57
2019-02-24T07:36:30.549Z,20.13
2019-02-24T07:39:22.135Z,18.10
2019-02-24T07:42:12.314Z,18.37
2019-02-24T07:45:21.056Z,20.37
2019-02-24T07:48:11.324Z,26.20
2019-02-24T07:51:01.193Z,17.53
2019-02-24T07:53:51.010Z,21.60
2019-02-24T07:56:40.835Z,18.13
2019-02-24T07:59:30.649Z,17.30
2019-02-24T08:02:20.449Z,21.80
2019-02-24T08:05:10.253Z,25.10
2019-02-24T08:08:00.087Z,19.93
2019-02-24T08:10:49.900Z,21.60
2019-02-24T08:13:39.726Z,24.73
2019-02-24T08:16:29.551Z,20.17
2019-02-24T08:19:19.410Z,21.43
2019-02-24T08:22:09.272Z,21.93
2019-02-24T08:24:59.067Z,28.50
2019-02-24T08:27:48.892Z,22.47
2019-02-24T08:30:41.645Z,15.33
2019-02-24T08:33:21.527Z,24.23
2019-02-24T08:36:11.377Z,22.23
2019-02-24T08:39:01.141Z,22.10
2019-02-24T08:41:31.665Z,19.30
2019-02-24T08:44:22.269Z,22.87
2019-02-24T08:46:59.226Z,20.47
2019-02-24T08:49:49.148Z,19.33
2019-02-24T08:52:38.933Z,19.77
2019-02-24T08:55:28.766Z,29.37
2019-02-24T08:58:19.165Z,19.70
2019-02-24T09:01:09.011Z,21.17
2019-02-24T09:03:58.845Z,26.80
2019-02-24T09:06:29.340Z,23.63
2019-02-24T09:08:59.844Z,25.40
2019-02-24T09:11:30.304Z,23.20
2019-02-24T09:14:00.707Z,25.63
2019-02-24T09:16:50.545Z,23.93
2019-02-24T09:19:40.324Z,26.33
2019-02-24T09:22:22.582Z,24.73
2019-02-24T09:24:55.256Z,30.93
2019-02-24T09:27:25.655Z,22.90
2019-02-24T09:30:26.881Z,25.00
2019-02-24T09:32:58.698Z,25.90
2019-02-24T09:35:30.721Z,22.20
2019-02-24T09:38:31.901Z,19.63
2019-02-24T09:41:03.421Z,21.13
2019-02-24T09:43:53.405Z,25.80
2019-02-24T09:46:54.645Z,27.40
2019-02-24T09:49:38.472Z,23.57
2019-02-24T09:52:09.237Z,23.20
2019-02-24T09:54:59.037Z,21.87
2019-02-24T09:58:00.695Z,22.70
2019-02-24T10:00:31.534Z,25.63
2019-02-24T10:03:03.629Z,22.67
2019-02-24T10:06:13.533Z,21.80
2019-02-24T10:08:43.959Z,20.87
2019-02-24T10:11:14.348Z,22.80
2019-02-24T10:13:44.574Z,20.33
2019-02-24T10:16:34.382Z,20.50
2019-02-24T10:19:25.136Z,21.13
2019-02-24T10:22:15.042Z,17.63
2019-02-24T10:24:45.831Z,19.20
2019-02-24T10:27:35.657Z,19.90
2019-02-24T10:30:44.541Z,24.20
2019-02-24T10:33:34.497Z,21.73
2019-02-24T10:36:05.016Z,20.50
2019-02-24T10:38:37.005Z,19.00
2019-02-24T10:41:26.902Z,13.90
2019-02-24T10:43:57.399Z,15.17
2019-02-24T10:46:27.793Z,19.30
2019-02-24T10:49:17.562Z,18.07
2019-02-24T10:51:47.988Z,13.87
2019-02-24T10:54:18.408Z,19.37
2019-02-24T10:56:48.899Z,16.73
2019-02-24T10:59:38.686Z,16.40
2019-02-24T11:02:28.485Z,16.20
2019-02-24T11:05:18.643Z,15.57
2019-02-24T11:08:08.526Z,13.67
2019-02-24T11:10:40.546Z,12.47
2019-02-24T11:13:30.379Z,14.93
2019-02-24T11:16:20.196Z,12.73
2019-02-24T11:18:52.242Z,13.90
2019-02-24T11:21:22.800Z,13.00
2019-02-24T11:23:53.251Z,10.63
2019-02-24T11:26:23.680Z,12.93
2019-02-24T11:29:13.532Z,14.63
2019-02-24T11:32:03.314Z,18.00
2019-02-24T11:34:33.722Z,16.03
2019-02-24T11:37:04.120Z,36.67
2019-02-24T11:39:34.553Z,38.73
2019-02-24T11:42:24.695Z,20.97
2019-02-24T11:44:55.176Z,16.00
2019-02-24T11:47:25.620Z,12.63
2019-02-24T11:50:15.496Z,11.83
2019-02-24T11:53:05.422Z,15.57
2019-02-24T11:55:36.337Z,13.77
2019-02-24T11:58:28.223Z,15.50
2019-02-24T12:01:18.497Z,10.63
2019-02-24T12:04:08.793Z,10.77
2019-02-24T12:06:39.233Z,9.20
2019-02-24T12:09:29.136Z,12.00
2019-02-24T12:11:59.564Z,5.67
2019-02-24T12:14:49.407Z,9.13
2019-02-24T12:17:19.842Z,9.00
2019-02-24T12:19:50.285Z,11.70
2019-02-24T12:22:40.205Z,6.87
2019-02-24T12:25:29.952Z,7.53
2019-02-24T12:28:00.379Z,6.80
2019-02-24T12:30:30.919Z,8.90
2019-02-24T12:33:03.379Z,8.27
2019-02-24T12:35:53.202Z,9.83
2019-02-24T12:38:23.641Z,11.23
2019-02-24T12:40:54.194Z,15.37
2019-02-24T12:46:50.186Z,11.10
2019-02-24T12:49:40.053Z,13.67
2019-02-24T12:52:30.013Z,12.83
2019-02-24T12:55:19.941Z,15.10
2019-02-24T12:57:50.431Z,18.30
2019-02-24T13:00:21.189Z,16.73
2019-02-24T13:03:11.106Z,16.13
2019-02-24T13:06:01.066Z,16.87
2019-02-24T13:08:50.954Z,12.33
2019-02-24T13:11:21.423Z,13.53
2019-02-24T13:14:11.491Z,13.63
2019-02-24T13:19:47.531Z,9.87
2019-02-24T13:22:37.351Z,10.90
2019-02-24T13:25:27.200Z,9.00
2019-02-24T13:28:16.991Z,14.70
2019-02-24T13:30:47.399Z,10.20
2019-02-24T13:33:37.353Z,12.67
2019-02-24T13:36:28.227Z,16.07
2019-02-24T13:39:18.033Z,9.53
2019-02-24T13:42:07.927Z,6.77
2019-02-24T13:44:39.945Z,11.00
2019-02-24T13:47:10.344Z,8.70
2019-02-24T13:50:00.517Z,8.47
2019-02-24T13:52:50.403Z,7.63
2019-02-24T13:55:40.182Z,5.83
2019-02-24T13:58:41.773Z,8.70
2019-02-24T14:01:12.328Z,6.70
2019-02-24T14:04:02.151Z,8.03
2019-02-24T14:06:51.938Z,8.20
2019-02-24T14:09:22.372Z,8.10
2019-02-24T14:12:12.146Z,6.53
2019-02-24T14:15:02.451Z,6.77
2019-02-24T14:17:52.298Z,16.37
2019-02-24T14:20:42.186Z,7.37
2019-02-24T14:23:32.220Z,7.40
2019-02-24T14:26:02.782Z,7.30
2019-02-24T14:28:33.318Z,6.53
2019-02-24T14:31:23.121Z,9.23
2019-02-24T14:34:12.988Z,6.53
2019-02-24T14:36:45.036Z,9.00
2019-02-24T14:39:34.899Z,8.43
2019-02-24T14:42:05.273Z,6.23
2019-02-24T14:44:55.197Z,7.70
2019-02-24T14:47:44.964Z,5.53
2019-02-24T14:50:15.440Z,5.70
2019-02-24T14:53:05.592Z,5.57
2019-02-24T14:55:36.190Z,6.60
2019-02-24T15:04:36.189Z,6.70
2019-02-24T15:07:26.017Z,4.87
2019-02-24T15:10:16.331Z,5.70
2019-02-24T15:13:06.127Z,4.87
2019-02-24T15:15:56.030Z,7.23
2019-02-24T15:18:45.895Z,7.13
2019-02-24T15:21:16.342Z,5.50
2019-02-24T15:24:06.172Z,5.93
2019-02-24T15:26:56.059Z,6.40
2019-02-24T15:29:45.895Z,4.90
2019-02-24T15:32:16.359Z,4.47
2019-02-24T15:35:06.283Z,9.20
2019-02-24T15:37:56.101Z,9.83
2019-02-24T15:40:45.954Z,6.97
2019-02-24T15:43:16.551Z,5.03
2019-02-24T15:45:47.174Z,7.53
2019-02-24T15:48:37.016Z,4.80
2019-02-24T15:51:26.883Z,9.70
2019-02-24T15:53:57.343Z,8.10
2019-02-24T15:56:47.132Z,5.50
2019-02-24T15:59:17.512Z,7.27
2019-02-24T16:01:47.972Z,4.63
2019-02-24T16:04:18.402Z,4.80
2019-02-24T16:07:08.248Z,5.53
2019-02-24T16:09:58.043Z,13.30
2019-02-24T16:12:47.945Z,5.73
2019-02-24T16:15:18.434Z,6.80
2019-02-24T16:17:48.994Z,6.60
2019-02-24T16:20:21.813Z,4.30
2019-02-24T16:22:52.260Z,5.97
2019-02-24T16:25:42.056Z,4.40
2019-02-24T16:28:31.966Z,5.60
2019-02-24T16:31:02.378Z,4.33
2019-02-24T16:33:52.235Z,5.57
2019-02-24T16:36:42.154Z,5.00
2019-02-24T16:39:32.012Z,5.23
2019-02-24T16:42:02.442Z,5.10
2019-02-24T16:44:52.593Z,9.50
2019-02-24T16:47:23.265Z,6.07
2019-02-24T16:50:25.128Z,4.70
2019-02-24T16:52:56.152Z,5.27
2019-02-24T16:55:46.056Z,10.97
2019-02-24T16:58:35.898Z,6.87
2019-02-24T17:01:06.373Z,5.73
2019-02-24T17:03:56.229Z,7.37
2019-02-24T17:06:46.029Z,5.20
2019-02-24T17:09:35.927Z,3.60
2019-02-24T17:12:06.363Z,3.80
2019-02-24T17:14:56.158Z,3.53
2019-02-24T17:17:46.913Z,3.73
2019-02-24T17:20:18.230Z,4.30
2019-02-24T17:22:49.196Z,4.53
2019-02-24T17:25:19.777Z,5.70
2019-02-24T17:27:50.221Z,3.37
2019-02-24T17:30:40.041Z,4.10
2019-02-24T17:33:32.080Z,4.70
2019-02-24T17:36:15.182Z,3.60
2019-02-24T17:39:17.937Z,5.10
2019-02-24T17:41:48.391Z,4.20
2019-02-24T17:44:38.259Z,4.93
2019-02-24T17:47:28.134Z,5.23
2019-02-24T17:49:58.623Z,4.57
2019-02-24T17:52:29.025Z,4.60
2019-02-24T17:55:02.020Z,2.90
2019-02-24T17:57:34.100Z,4.40
2019-02-24T18:03:38.791Z,3.93
2019-02-24T18:06:07.436Z,6.03
2019-02-24T18:08:57.337Z,4.57
2019-02-24T18:11:47.148Z,5.47
2019-02-24T18:14:36.978Z,6.20
2019-02-24T18:17:07.430Z,4.40
2019-02-24T18:19:57.344Z,4.93
2019-02-24T18:22:47.222Z,7.27
2019-02-24T18:25:37.075Z,4.33
2019-02-24T18:28:26.920Z,5.30
2019-02-24T18:30:57.403Z,5.70
2019-02-24T18:33:48.540Z,3.93
2019-02-24T18:36:30.379Z,3.70
2019-02-24T18:39:20.288Z,4.30
2019-02-24T18:42:10.233Z,8.73
2019-02-24T18:44:40.880Z,3.63
2019-02-24T18:47:11.369Z,4.83
2019-02-24T18:50:01.222Z,3.93
2019-02-24T18:52:51.112Z,15.23
2019-02-24T18:55:40.954Z,6.23
2019-02-24T18:58:31.902Z,3.17
2019-02-24T19:01:02.375Z,2.50
2019-02-24T19:03:57.810Z,3.23
2019-02-24T19:06:38.961Z,2.93
2019-02-24T19:09:10.080Z,2.53
2019-02-24T19:11:59.972Z,3.43
2019-02-24T19:14:30.512Z,3.20
2019-02-24T19:17:01.212Z,4.17
2019-02-24T19:19:51.015Z,6.83
2019-02-24T19:22:21.562Z,3.83
2019-02-24T19:25:11.459Z,3.03
2019-02-24T19:27:42.233Z,4.50
2019-02-24T19:30:32.047Z,3.30
2019-02-24T19:33:21.930Z,3.00
2019-02-24T19:35:52.350Z,4.40
2019-02-24T19:38:42.177Z,4.70
2019-02-24T19:41:32.940Z,7.97
2019-02-24T19:44:03.368Z,4.00
2019-02-24T19:46:53.258Z,3.27
2019-02-24T19:49:23.674Z,3.57
2019-02-24T19:51:54.370Z,3.90
2019-02-24T19:57:34.650Z,3.70
2019-02-24T20:00:06.137Z,7.83
2019-02-24T20:02:56.056Z,4.17
2019-02-24T20:05:27.204Z,3.20
2019-02-24T20:07:58.208Z,3.77
2019-02-24T20:10:48.096Z,3.13
2019-02-24T20:13:37.942Z,3.10
2019-02-24T20:16:08.491Z,3.70
2019-02-24T20:18:58.663Z,3.53
2019-02-24T20:21:30.914Z,2.93
2019-02-24T20:24:01.466Z,4.00
2019-02-24T20:26:32.118Z,3.77
2019-02-24T20:29:21.960Z,3.23
2019-02-24T20:31:52.369Z,3.10
2019-02-24T20:34:42.202Z,4.57
2019-02-24T20:37:31.978Z,2.70
2019-02-24T20:40:02.394Z,2.97
2019-02-24T20:42:52.285Z,3.20
2019-02-24T20:45:42.192Z,2.83
2019-02-24T20:51:28.969Z,5.00
2019-02-24T20:54:01.151Z,4.13
2019-02-24T20:56:31.700Z,3.60
2019-02-24T20:59:02.153Z,3.70
2019-02-24T21:01:52.011Z,3.80
2019-02-24T21:05:01.271Z,3.63
2019-02-24T21:07:33.349Z,2.90
2019-02-24T21:10:42.064Z,4.50
2019-02-24T21:13:32.022Z,3.40
2019-02-24T21:16:22.409Z,4.13
2019-02-24T21:19:12.350Z,4.27
2019-02-24T21:22:02.297Z,2.80
2019-02-24T21:24:33.015Z,3.73
2019-02-24T21:27:03.470Z,5.77
2019-02-24T21:29:53.328Z,5.60
2019-02-24T21:32:29.544Z,3.83
2019-02-24T21:35:19.448Z,3.47
2019-02-24T21:38:09.311Z,3.40
2019-02-24T21:40:59.463Z,5.63
2019-02-24T21:43:49.300Z,4.13
2019-02-24T21:46:39.136Z,3.83
2019-02-24T21:49:29.066Z,3.83
2019-02-24T21:52:18.948Z,4.10
2019-02-24T21:54:49.360Z,5.23
2019-02-24T21:57:39.210Z,3.97
2019-02-24T22:00:29.087Z,3.83
2019-02-24T22:03:19.858Z,3.60
2019-02-24T22:05:50.411Z,3.77
2019-02-24T22:08:40.221Z,5.27
2019-02-24T22:11:30.070Z,4.90
2019-02-24T22:14:19.902Z,3.63
2019-02-24T22:16:50.315Z,3.80
2019-02-24T22:19:40.123Z,4.27
2019-02-24T22:22:29.888Z,4.10
2019-02-24T22:25:00.283Z,3.53
2019-02-24T22:27:30.791Z,4.60
2019-02-24T22:30:01.215Z,3.60
2019-02-24T22:32:31.638Z,3.47
2019-02-24T22:35:02.125Z,3.43
2019-02-24T22:37:52.104Z,3.07
2019-02-24T22:40:22.507Z,2.70
2019-02-24T22:43:12.322Z,2.90
2019-02-24T22:45:43.134Z,3.60
2019-02-24T22:48:32.952Z,3.37
2019-02-24T22:51:04.947Z,3.20
2019-02-24T22:53:35.394Z,5.30
2019-02-24T22:56:25.125Z,3.57
2019-02-24T22:58:55.544Z,4.13
2019-02-24T23:01:45.087Z,5.17
2019-02-24T23:04:34.916Z,2.73
2019-02-24T23:07:06.917Z,5.03
2019-02-24T23:09:37.390Z,3.50
2019-02-24T23:12:27.148Z,3.27
2019-02-24T23:15:16.982Z,2.77
2019-02-24T23:17:47.369Z,2.77
2019-02-24T23:20:17.744Z,3.50
2019-02-24T23:22:48.119Z,3.43
2019-02-24T23:25:37.930Z,3.87
2019-02-24T23:28:10.005Z,4.70
2019-02-24T23:30:59.899Z,3.30
2019-02-24T23:33:30.341Z,4.87
2019-02-24T23:36:20.143Z,3.17
2019-02-24T23:42:32.451Z,3.87
2019-02-24T23:45:22.602Z,3.37
2019-02-24T23:47:53.274Z,2.90
2019-02-24T23:50:43.075Z,3.57
2019-02-24T23:53:32.896Z,7.87
2019-02-24T23:56:03.298Z,5.87
2019-02-24T23:58:53.074Z,3.67
